createdAt,value
2022-09-27T00:02:25.438Z,100393.78
2022-09-27T00:04:55.820Z,100401.47
2022-09-27T00:07:24.368Z,100405.91
2022-09-27T00:09:52.972Z,100395.34
2022-09-27T00:12:21.488Z,100399.03
2022-09-27T00:14:52.278Z,100409.84
2022-09-27T00:17:23.024Z,100406.47
2022-09-27T00:19:52.529Z,100390.06
2022-09-27T00:22:24.436Z,100392.91
2022-09-27T00:24:53.054Z,100382.88
2022-09-27T00:27:22.511Z,100388.00
2022-09-27T00:29:53.394Z,100390.41
2022-09-27T00:32:23.362Z,100394.03
2022-09-27T00:34:54.315Z,100391.97
2022-09-27T00:37:26.160Z,100401.19
2022-09-27T00:39:55.840Z,100381.88
2022-09-27T00:42:25.061Z,100392.44
2022-09-27T00:45:06.571Z,100380.22
2022-09-27T00:47:42.592Z,100375.78
2022-09-27T00:50:25.934Z,100380.09
2022-09-27T00:53:06.048Z,100371.34
2022-09-27T00:55:38.405Z,100364.84
2022-09-27T00:58:10.380Z,100367.63
2022-09-27T01:00:44.017Z,100376.88
2022-09-27T01:03:18.246Z,100370.72
2022-09-27T01:05:48.255Z,100370.00
2022-09-27T01:08:20.152Z,100369.06
2022-09-27T01:10:59.989Z,100380.34
2022-09-27T01:13:37.076Z,100366.56
2022-09-27T01:16:15.150Z,100368.38
2022-09-27T01:18:59.477Z,100373.63
2022-09-27T01:21:46.622Z,100353.97
2022-09-27T01:24:58.739Z,100367.16
2022-09-27T01:28:06.882Z,100361.88
2022-09-27T01:30:44.522Z,100350.22
2022-09-27T01:33:43.169Z,100358.59
2022-09-27T01:36:22.968Z,100343.50
2022-09-27T01:39:08.376Z,100331.03
2022-09-27T01:41:45.379Z,100335.25
2022-09-27T01:44:19.195Z,100317.22
2022-09-27T01:46:53.617Z,100320.94
2022-09-27T01:49:29.979Z,100314.22
2022-09-27T01:52:02.415Z,100314.44
2022-09-27T01:54:37.351Z,100310.59
2022-09-27T01:57:08.646Z,100303.41
2022-09-27T01:59:45.723Z,100301.00
2022-09-27T02:02:19.222Z,100292.84
2022-09-27T02:04:49.621Z,100281.41
2022-09-27T02:07:24.194Z,100281.41
2022-09-27T02:09:58.303Z,100287.44
2022-09-27T02:12:31.288Z,100277.00
2022-09-27T02:15:04.420Z,100270.63
2022-09-27T02:17:43.586Z,100271.59
2022-09-27T02:20:20.578Z,100277.47
2022-09-27T02:22:56.599Z,100285.63
2022-09-27T02:25:30.305Z,100281.75
2022-09-27T02:28:08.132Z,100274.81
2022-09-27T02:30:36.811Z,100263.41
2022-09-27T02:33:08.020Z,100255.38
2022-09-27T02:35:38.258Z,100237.84
2022-09-27T02:38:09.413Z,100245.44
2022-09-27T02:40:46.041Z,100260.19
2022-09-27T02:43:18.246Z,100262.63
2022-09-27T02:46:08.036Z,100269.19
2022-09-27T02:48:50.997Z,100262.25
2022-09-27T02:51:35.777Z,100252.50
2022-09-27T02:54:16.542Z,100247.56
2022-09-27T02:56:55.327Z,100249.50
2022-09-27T02:59:34.663Z,100243.97
2022-09-27T03:02:13.761Z,100249.25
2022-09-27T03:04:55.497Z,100245.50
2022-09-27T03:07:25.213Z,100239.19
2022-09-27T03:09:59.946Z,100225.69
2022-09-27T03:12:29.846Z,100222.66
2022-09-27T03:15:00.925Z,100214.72
2022-09-27T03:17:29.665Z,100215.28
2022-09-27T03:19:59.592Z,100216.25
2022-09-27T03:22:29.437Z,100203.63
2022-09-27T03:24:58.997Z,100201.84
2022-09-27T03:27:27.547Z,100191.59
2022-09-27T03:29:58.824Z,100183.34
2022-09-27T03:32:34.961Z,100182.66
2022-09-27T03:35:07.179Z,100177.47
2022-09-27T03:37:36.065Z,100186.81
2022-09-27T03:40:04.844Z,100174.88
2022-09-27T03:42:33.276Z,100185.19
2022-09-27T03:45:03.020Z,100178.50
2022-09-27T03:47:31.579Z,100193.84
2022-09-27T03:50:00.124Z,100175.84
2022-09-27T03:52:32.843Z,100166.13
2022-09-27T03:55:03.840Z,100167.81
2022-09-27T03:57:37.230Z,100170.72
2022-09-27T04:00:06.055Z,100165.28
2022-09-27T04:02:34.795Z,100168.22
2022-09-27T04:05:03.513Z,100162.78
2022-09-27T04:07:33.739Z,100168.78
2022-09-27T04:10:10.788Z,100148.75
2022-09-27T04:12:42.163Z,100145.81
2022-09-27T04:15:12.881Z,100151.50
2022-09-27T04:17:44.147Z,100163.03
2022-09-27T04:20:13.221Z,100144.59
2022-09-27T04:22:45.917Z,100161.56
2022-09-27T04:25:19.198Z,100164.59
2022-09-27T04:27:48.905Z,100165.28
2022-09-27T04:30:18.791Z,100168.91
2022-09-27T04:32:50.333Z,100166.53
2022-09-27T04:35:36.369Z,100157.66
2022-09-27T04:38:07.872Z,100140.25
2022-09-27T04:40:38.012Z,100144.13
2022-09-27T04:43:06.625Z,100144.69
2022-09-27T04:45:35.674Z,100151.34
2022-09-27T04:48:03.986Z,100151.50
2022-09-27T04:50:35.945Z,100154.53
2022-09-27T04:53:07.268Z,100154.53
2022-09-27T04:55:36.765Z,100158.75
2022-09-27T04:58:05.878Z,100150.13
2022-09-27T05:00:35.476Z,100149.41
2022-09-27T05:03:06.299Z,100169.44
2022-09-27T05:05:34.609Z,100158.75
2022-09-27T05:08:03.512Z,100151.47
2022-09-27T05:10:33.331Z,100155.91
2022-09-27T05:13:01.689Z,100154.81
2022-09-27T05:15:30.561Z,100163.00
2022-09-27T05:17:59.994Z,100154.81
2022-09-27T05:20:30.043Z,100154.25
2022-09-27T05:22:59.831Z,100157.03
2022-09-27T05:25:28.564Z,100158.94
2022-09-27T05:27:59.241Z,100163.63
2022-09-27T05:30:30.857Z,100154.63
2022-09-27T05:32:59.558Z,100154.78
2022-09-27T05:35:28.267Z,100150.31
2022-09-27T05:38:00.288Z,100148.31
2022-09-27T05:40:40.964Z,100146.84
2022-09-27T05:43:12.017Z,100150.28
2022-09-27T05:45:44.400Z,100150.00
2022-09-27T05:48:14.860Z,100145.09
2022-09-27T05:50:43.485Z,100140.41
2022-09-27T05:53:13.704Z,100146.75
2022-09-27T05:55:50.099Z,100148.47
2022-09-27T05:58:21.165Z,100156.38
2022-09-27T06:00:51.684Z,100150.91
2022-09-27T06:03:21.260Z,100144.22
2022-09-27T06:05:57.025Z,100145.44
2022-09-27T06:08:25.486Z,100137.38
2022-09-27T06:11:03.699Z,100138.34
2022-09-27T06:13:36.551Z,100131.41
2022-09-27T06:16:05.884Z,100133.81
2022-09-27T06:18:36.912Z,100126.41
2022-09-27T06:21:06.986Z,100138.63
2022-09-27T06:23:37.664Z,100140.00
2022-09-27T06:26:08.517Z,100146.78
2022-09-27T06:28:39.118Z,100145.84
2022-09-27T06:31:11.994Z,100143.47
2022-09-27T06:33:49.513Z,100148.59
2022-09-27T06:36:18.515Z,100137.09
2022-09-27T06:38:48.547Z,100142.25
2022-09-27T06:41:18.119Z,100144.06
2022-09-27T06:43:50.050Z,100151.13
2022-09-27T06:46:18.453Z,100153.50
2022-09-27T06:48:48.528Z,100150.03
2022-09-27T06:51:17.198Z,100151.69
2022-09-27T06:53:45.738Z,100156.97
2022-09-27T06:56:15.306Z,100146.03
2022-09-27T06:59:00.900Z,100141.63
2022-09-27T07:01:34.094Z,100137.88
2022-09-27T07:04:07.842Z,100140.66
2022-09-27T07:06:38.903Z,100139.53
2022-09-27T07:09:07.533Z,100136.34
2022-09-27T07:11:37.965Z,100135.09
2022-09-27T07:14:11.059Z,100133.66
2022-09-27T07:16:45.317Z,100138.94
2022-09-27T07:19:21.438Z,100130.19
2022-09-27T07:21:52.940Z,100126.31
2022-09-27T07:24:21.436Z,100125.16
2022-09-27T07:26:52.171Z,100133.84
2022-09-27T07:29:21.737Z,100135.66
2022-09-27T07:31:52.737Z,100145.25
2022-09-27T07:34:21.188Z,100150.53
2022-09-27T07:36:55.359Z,100136.94
2022-09-27T07:39:24.588Z,100136.22
2022-09-27T07:41:53.300Z,100134.16
2022-09-27T07:44:21.977Z,100131.41
2022-09-27T07:46:52.041Z,100125.00
2022-09-27T07:49:22.089Z,100128.38
2022-09-27T07:51:51.614Z,100121.13
2022-09-27T07:54:21.329Z,100115.31
2022-09-27T07:56:52.170Z,100119.25
2022-09-27T07:59:20.914Z,100119.81
2022-09-27T08:02:07.349Z,100123.84
2022-09-27T08:04:35.835Z,100127.41
2022-09-27T08:07:04.260Z,100126.28
2022-09-27T08:09:33.057Z,100123.00
2022-09-27T08:12:01.658Z,100126.22
2022-09-27T08:14:30.385Z,100120.22
2022-09-27T08:16:59.185Z,100118.31
2022-09-27T08:19:36.600Z,100130.28
2022-09-27T08:22:05.361Z,100122.78
2022-09-27T08:24:33.811Z,100126.84
2022-09-27T08:27:07.026Z,100115.28
2022-09-27T08:29:42.131Z,100102.91
2022-09-27T08:32:12.654Z,100109.19
2022-09-27T08:34:44.121Z,100096.63
2022-09-27T08:37:14.588Z,100083.72
2022-09-27T08:39:47.969Z,100090.13
2022-09-27T08:42:29.505Z,100081.75
2022-09-27T08:45:05.830Z,100077.59
2022-09-27T08:47:40.525Z,100072.59
2022-09-27T08:50:28.119Z,100067.19
2022-09-27T08:53:01.880Z,100076.47
2022-09-27T08:55:37.924Z,100057.44
2022-09-27T08:58:15.004Z,100070.25
2022-09-27T09:00:43.671Z,100068.00
2022-09-27T09:03:23.138Z,100068.97
2022-09-27T09:06:08.649Z,100072.47
2022-09-27T09:08:51.081Z,100073.16
2022-09-27T09:11:51.333Z,100075.78
2022-09-27T09:14:56.568Z,100076.19
2022-09-27T09:17:37.876Z,100080.25
2022-09-27T09:20:22.077Z,100081.91
2022-09-27T09:23:06.799Z,100085.13
2022-09-27T09:25:44.512Z,100075.38
2022-09-27T09:28:30.433Z,100078.84
2022-09-27T09:31:07.579Z,100074.41
2022-09-27T09:33:40.660Z,100072.06
2022-09-27T09:36:20.340Z,100063.38
2022-09-27T09:38:57.685Z,100072.19
2022-09-27T09:41:32.165Z,100067.03
2022-09-27T09:44:06.301Z,100074.69
2022-09-27T09:46:45.384Z,100061.72
2022-09-27T09:49:20.253Z,100055.19
2022-09-27T09:51:52.801Z,100049.75
2022-09-27T09:54:28.872Z,100047.50
2022-09-27T09:57:05.152Z,100044.53
2022-09-27T09:59:40.315Z,100033.91
2022-09-27T10:02:24.735Z,100036.16
2022-09-27T10:04:53.376Z,100035.75
2022-09-27T10:07:25.658Z,100041.91
2022-09-27T10:10:01.104Z,100029.06
2022-09-27T10:12:30.858Z,100016.00
2022-09-27T10:15:02.982Z,100036.50
2022-09-27T10:17:40.641Z,100028.84
2022-09-27T10:20:17.119Z,100032.88
2022-09-27T10:22:54.806Z,100029.91
2022-09-27T10:25:25.819Z,100033.25
2022-09-27T10:27:57.177Z,100028.66
2022-09-27T10:30:29.557Z,100028.81
2022-09-27T10:33:00.941Z,100025.16
2022-09-27T10:35:38.199Z,100023.63
2022-09-27T10:38:27.306Z,100025.28
2022-09-27T10:41:00.129Z,100027.53
2022-09-27T10:43:33.782Z,100028.38
2022-09-27T10:46:17.743Z,100016.78
2022-09-27T10:48:46.400Z,100007.63
2022-09-27T10:51:28.640Z,100013.09
2022-09-27T10:54:00.824Z,100016.84
2022-09-27T10:56:33.388Z,100028.56
2022-09-27T10:59:04.297Z,100006.09
2022-09-27T11:01:42.611Z,99995.16
2022-09-27T11:04:21.609Z,99990.88
2022-09-27T11:06:50.723Z,99986.94
2022-09-27T11:09:24.479Z,99986.41
2022-09-27T11:12:10.433Z,99975.41
2022-09-27T11:14:41.674Z,99978.19
2022-09-27T11:17:22.269Z,99967.25
2022-09-27T11:20:29.116Z,99961.41
2022-09-27T11:23:30.009Z,99951.88
2022-09-27T11:26:11.447Z,99949.94
2022-09-27T11:28:54.090Z,99943.00
2022-09-27T11:31:36.682Z,99949.97
2022-09-27T11:34:37.831Z,99954.56
2022-09-27T11:37:18.458Z,99945.19
2022-09-27T11:40:03.006Z,99948.44
2022-09-27T11:43:00.055Z,99946.94
2022-09-27T11:46:14.219Z,99958.41
2022-09-27T11:48:56.553Z,99958.81
2022-09-27T11:51:37.593Z,99951.00
2022-09-27T11:54:31.178Z,99953.53
2022-09-27T11:57:05.797Z,99940.56
2022-09-27T12:00:09.174Z,99940.97
2022-09-27T12:02:58.601Z,99934.34
2022-09-27T12:05:38.056Z,99930.34
2022-09-27T12:08:22.885Z,99935.88
2022-09-27T12:10:56.423Z,99931.41
2022-09-27T12:13:36.097Z,99925.28
2022-09-27T12:16:05.966Z,99931.78
2022-09-27T12:18:41.565Z,99929.44
2022-09-27T12:21:13.288Z,99928.63
2022-09-27T12:23:45.962Z,99919.84
2022-09-27T12:26:21.750Z,99924.69
2022-09-27T12:28:54.359Z,99913.19
2022-09-27T12:31:41.186Z,99921.03
2022-09-27T12:34:20.547Z,99917.03
2022-09-27T12:36:58.186Z,99923.59
2022-09-27T12:39:35.161Z,99928.38
2022-09-27T12:45:53.692Z,99916.78
2022-09-27T12:48:41.100Z,99918.22
2022-09-27T12:51:46.510Z,99901.44
2022-09-27T12:54:40.654Z,99920.22
2022-09-27T12:57:39.751Z,99895.00
2022-09-27T13:00:34.443Z,99903.56
2022-09-27T13:04:08.234Z,99898.84
2022-09-27T13:10:08.473Z,99892.88
2022-09-27T13:12:47.791Z,99909.97
2022-09-27T13:15:23.113Z,99914.34
2022-09-27T13:17:57.073Z,99911.19
2022-09-27T13:20:51.357Z,99906.56
2022-09-27T13:24:02.518Z,99912.47
2022-09-27T13:26:52.346Z,99910.78
2022-09-27T13:29:37.280Z,99904.81
2022-09-27T13:32:20.948Z,99896.31
2022-09-27T13:34:55.055Z,99902.75
2022-09-27T13:37:54.860Z,99903.13
2022-09-27T13:40:50.242Z,99915.69
2022-09-27T13:43:49.269Z,99906.34
2022-09-27T13:46:22.122Z,99905.97
2022-09-27T13:48:58.330Z,99907.84
2022-09-27T13:51:38.781Z,99915.19
2022-09-27T13:54:12.809Z,99902.88
2022-09-27T13:56:58.551Z,99895.19
2022-09-27T13:59:34.914Z,99888.13
2022-09-27T14:02:29.375Z,99902.06
2022-09-27T14:05:04.822Z,99891.78
2022-09-27T14:07:53.718Z,99885.03
2022-09-27T14:10:24.607Z,99882.34
2022-09-27T14:13:04.897Z,99891.56
2022-09-27T14:15:34.517Z,99873.25
2022-09-27T14:18:26.696Z,99876.31
2022-09-27T14:20:55.891Z,99881.00
2022-09-27T14:23:58.274Z,99874.69
2022-09-27T14:26:33.316Z,99883.78
2022-09-27T14:29:31.602Z,99885.28
2022-09-27T14:32:20.547Z,99880.53
2022-09-27T14:35:07.974Z,99880.53
2022-09-27T14:37:38.904Z,99868.72
2022-09-27T14:40:24.198Z,99871.50
2022-09-27T14:43:05.517Z,99876.59
2022-09-27T14:46:04.598Z,99872.94
2022-09-27T14:48:36.918Z,99866.28
2022-09-27T14:51:20.097Z,99865.91
2022-09-27T14:53:50.565Z,99863.03
2022-09-27T14:56:23.078Z,99851.53
2022-09-27T14:58:57.235Z,99863.72
2022-09-27T15:01:27.889Z,99861.28
2022-09-27T15:04:08.675Z,99866.59
2022-09-27T15:06:55.921Z,99852.66
2022-09-27T15:09:32.355Z,99861.59
2022-09-27T15:12:09.291Z,99848.81
2022-09-27T15:14:41.525Z,99847.97
2022-09-27T15:17:21.355Z,99851.13
2022-09-27T15:20:25.225Z,99855.16
2022-09-27T15:22:53.836Z,99853.56
2022-09-27T15:25:34.571Z,99857.88
2022-09-27T15:28:06.198Z,99851.09
2022-09-27T15:30:39.983Z,99841.78
2022-09-27T15:33:22.391Z,99852.06
2022-09-27T15:35:53.026Z,99867.34
2022-09-27T15:38:31.589Z,99869.22
2022-09-27T15:41:09.677Z,99861.41
2022-09-27T15:43:41.802Z,99867.69
2022-09-27T15:46:39.093Z,99882.66
2022-09-27T15:49:34.856Z,99874.03
2022-09-27T15:52:05.490Z,99873.03
2022-09-27T15:54:35.942Z,99873.81
2022-09-27T15:57:06.871Z,99877.44
2022-09-27T15:59:37.172Z,99871.06
2022-09-27T16:02:19.721Z,99884.47
2022-09-27T16:04:49.689Z,99873.75
2022-09-27T16:07:17.983Z,99869.31
2022-09-27T16:09:49.639Z,99880.75
2022-09-27T16:12:18.266Z,99870.16
2022-09-27T16:14:46.787Z,99871.59
2022-09-27T16:17:16.150Z,99874.69
2022-09-27T16:19:44.795Z,99879.16
2022-09-27T16:22:14.963Z,99877.34
2022-09-27T16:24:43.276Z,99888.66
2022-09-27T16:27:12.019Z,99884.09
2022-09-27T16:29:44.362Z,99892.06
2022-09-27T16:32:12.955Z,99882.00
2022-09-27T16:34:41.573Z,99887.63
2022-09-27T16:37:10.508Z,99893.44
2022-09-27T16:39:40.975Z,99888.19
2022-09-27T16:42:09.907Z,99895.44
2022-09-27T16:44:38.294Z,99897.38
2022-09-27T16:47:07.357Z,99896.69
2022-09-27T16:49:53.706Z,99901.97
2022-09-27T16:52:22.003Z,99900.84
2022-09-27T16:54:52.132Z,99909.09
2022-09-27T16:57:20.681Z,99909.91
2022-09-27T16:59:50.048Z,99910.47
2022-09-27T17:02:19.967Z,99903.50
2022-09-27T17:04:48.566Z,99910.88
2022-09-27T17:07:17.113Z,99894.19
2022-09-27T17:09:45.763Z,99898.94
2022-09-27T17:12:16.711Z,99907.28
2022-09-27T17:14:45.538Z,99897.13
2022-09-27T17:17:14.087Z,99895.72
2022-09-27T17:19:42.968Z,99900.31
2022-09-27T17:22:11.913Z,99903.66
2022-09-27T17:24:40.494Z,99899.63
2022-09-27T17:27:09.494Z,99904.06
2022-09-27T17:29:40.341Z,99903.25
2022-09-27T17:32:09.150Z,99901.03
2022-09-27T17:34:43.905Z,99907.28
2022-09-27T17:37:13.474Z,99910.06
2022-09-27T17:39:42.304Z,99911.75
2022-09-27T17:42:12.201Z,99919.78
2022-09-27T17:44:42.528Z,99920.94
2022-09-27T17:47:28.728Z,99918.41
2022-09-27T17:50:14.437Z,99920.34
2022-09-27T17:52:43.588Z,99928.13
2022-09-27T17:55:12.213Z,99929.13
2022-09-27T17:57:40.882Z,99928.84
2022-09-27T18:00:12.890Z,99936.91
2022-09-27T18:02:42.204Z,99937.31
2022-09-27T18:05:11.104Z,99934.00
2022-09-27T18:07:39.556Z,99929.94
2022-09-27T18:10:09.555Z,99931.03
2022-09-27T18:12:39.334Z,99935.50
2022-09-27T18:15:09.185Z,99933.00
2022-09-27T18:17:39.176Z,99941.50
2022-09-27T18:20:08.160Z,99949.69
2022-09-27T18:22:39.674Z,99950.09
2022-09-27T18:25:09.120Z,99954.81
2022-09-27T18:27:38.672Z,99958.75
2022-09-27T18:30:09.982Z,99966.38
2022-09-27T18:32:40.429Z,99965.53
2022-09-27T18:35:09.223Z,99966.50
2022-09-27T18:37:38.997Z,99962.06
2022-09-27T18:40:08.554Z,99961.22
2022-09-27T18:42:37.054Z,99966.09
2022-09-27T18:45:06.516Z,99964.97
2022-09-27T18:47:35.106Z,99965.13
2022-09-27T18:50:05.724Z,99963.56
2022-09-27T18:52:36.585Z,99974.69
2022-09-27T18:55:06.988Z,99979.31
2022-09-27T18:57:37.652Z,99983.59
2022-09-27T19:00:08.916Z,99983.47
2022-09-27T19:02:37.335Z,99988.88
2022-09-27T19:05:09.138Z,99989.72
2022-09-27T19:07:40.491Z,100007.78
2022-09-27T19:10:10.384Z,100004.31
2022-09-27T19:12:40.875Z,100000.84
2022-09-27T19:15:11.713Z,100007.09
2022-09-27T19:17:40.626Z,99998.06
2022-09-27T19:20:12.707Z,100012.38
2022-09-27T19:22:41.351Z,100010.84
2022-09-27T19:25:11.895Z,100015.44
2022-09-27T19:27:43.306Z,100005.78
2022-09-27T19:30:13.913Z,100000.78
2022-09-27T19:32:42.724Z,100006.31
2022-09-27T19:35:14.945Z,100008.81
2022-09-27T19:37:43.730Z,100008.00
2022-09-27T19:40:12.530Z,100009.81
2022-09-27T19:42:41.397Z,100010.63
2022-09-27T19:45:12.818Z,100012.88
2022-09-27T19:47:41.613Z,100010.06
2022-09-27T19:50:11.235Z,100006.00
2022-09-27T19:52:41.561Z,100003.50
2022-09-27T19:55:11.441Z,99996.81
2022-09-27T19:57:40.162Z,99996.25
2022-09-27T20:00:10.330Z,100006.25
2022-09-27T20:02:51.995Z,100003.41
2022-09-27T20:05:22.046Z,100010.50
2022-09-27T20:07:54.215Z,100011.97
2022-09-27T20:10:22.670Z,100006.09
2022-09-27T20:12:52.083Z,100009.16
2022-09-27T20:15:21.421Z,100013.00
2022-09-27T20:17:51.261Z,100012.31
2022-09-27T20:20:20.855Z,100011.72
2022-09-27T20:22:52.084Z,100012.94
2022-09-27T20:25:20.746Z,100020.31
2022-09-27T20:27:50.074Z,100007.63
2022-09-27T20:30:19.013Z,100015.81
2022-09-27T20:33:07.864Z,100012.91
2022-09-27T20:35:37.350Z,100012.44
2022-09-27T20:38:07.571Z,100018.25
2022-09-27T20:40:36.563Z,100016.59
2022-09-27T20:43:05.328Z,100016.09
2022-09-27T20:45:35.904Z,100014.19
2022-09-27T20:48:04.775Z,100020.69
2022-09-27T20:50:34.007Z,100025.25
2022-09-27T20:53:03.469Z,100032.69
2022-09-27T20:55:36.015Z,100041.56
2022-09-27T20:58:04.686Z,100032.22
2022-09-27T21:00:37.258Z,100029.75
2022-09-27T21:03:08.477Z,100034.19
2022-09-27T21:05:37.090Z,100032.50
2022-09-27T21:08:06.618Z,100027.34
2022-09-27T21:10:36.745Z,100033.00
2022-09-27T21:13:05.739Z,100035.63
2022-09-27T21:15:34.550Z,100032.88
2022-09-27T21:18:02.962Z,100042.59
2022-09-27T21:20:32.012Z,100042.72
2022-09-27T21:23:02.203Z,100043.53
2022-09-27T21:25:30.632Z,100048.13
2022-09-27T21:28:01.901Z,100052.56
2022-09-27T21:30:30.385Z,100054.22
2022-09-27T21:32:59.603Z,100055.06
2022-09-27T21:35:28.997Z,100058.53
2022-09-27T21:37:58.503Z,100053.97
2022-09-27T21:40:28.183Z,100052.78
2022-09-27T21:42:57.867Z,100058.97
2022-09-27T21:45:34.888Z,100059.13
2022-09-27T21:48:03.584Z,100059.94
2022-09-27T21:50:32.920Z,100057.69
2022-09-27T21:53:01.251Z,100050.88
2022-09-27T21:55:31.138Z,100060.00
2022-09-27T21:57:59.643Z,100062.50
2022-09-27T22:00:28.332Z,100068.59
2022-09-27T22:03:00.285Z,100076.38
2022-09-27T22:05:29.948Z,100084.19
2022-09-27T22:08:13.580Z,100076.66
2022-09-27T22:10:42.331Z,100080.81
2022-09-27T22:13:11.342Z,100069.56
2022-09-27T22:15:41.678Z,100068.00
2022-09-27T22:18:13.300Z,100077.47
2022-09-27T22:20:43.585Z,100074.59
2022-09-27T22:23:12.331Z,100071.00
2022-09-27T22:25:41.899Z,100073.75
2022-09-27T22:28:10.701Z,100083.25
2022-09-27T22:30:40.109Z,100087.56
2022-09-27T22:33:08.598Z,100089.00
2022-09-27T22:35:47.675Z,100085.78
2022-09-27T22:38:17.350Z,100088.78
2022-09-27T22:40:54.824Z,100090.25
2022-09-27T22:43:27.008Z,100094.22
2022-09-27T22:45:55.688Z,100102.47
2022-09-27T22:48:25.063Z,100109.53
2022-09-27T22:50:58.439Z,100110.97
2022-09-27T22:53:28.002Z,100112.91
2022-09-27T22:56:04.808Z,100107.63
2022-09-27T22:58:36.030Z,100117.66
2022-09-27T23:01:09.916Z,100119.59
2022-09-27T23:03:38.624Z,100110.13
2022-09-27T23:06:09.827Z,100108.59
2022-09-27T23:08:39.784Z,100106.94
2022-09-27T23:11:10.614Z,100105.34
2022-09-27T23:13:41.943Z,100114.34
2022-09-27T23:16:12.760Z,100111.22
2022-09-27T23:18:42.294Z,100103.56
2022-09-27T23:21:15.980Z,100105.72
2022-09-27T23:23:46.688Z,100100.94
2022-09-27T23:26:17.929Z,100109.91
2022-09-27T23:28:46.733Z,100104.03
2022-09-27T23:31:18.967Z,100107.63
2022-09-27T23:33:49.550Z,100105.94
2022-09-27T23:36:22.751Z,100091.13
2022-09-27T23:38:51.632Z,100091.34
2022-09-27T23:41:21.392Z,100094.09
2022-09-27T23:43:51.359Z,100096.00
2022-09-27T23:46:26.014Z,100094.94
2022-09-27T23:49:01.309Z,100102.47
2022-09-27T23:51:31.221Z,100095.53
2022-09-27T23:54:01.138Z,100093.22
2022-09-27T23:56:29.612Z,100097.66
2022-09-27T23:59:01.244Z,100092.38
